createdAt,value
2022-10-29T00:00:55.138Z,7.28
2022-10-29T00:03:22.654Z,7.29
2022-10-29T00:06:01.535Z,7.29
2022-10-29T00:08:30.709Z,7.35
2022-10-29T00:11:06.419Z,7.44
2022-10-29T00:13:33.731Z,7.48
2022-10-29T00:16:00.225Z,7.46
2022-10-29T00:18:26.738Z,7.48
2022-10-29T00:21:00.900Z,7.42
2022-10-29T00:23:27.479Z,7.46
2022-10-29T00:26:01.604Z,7.38
2022-10-29T00:28:28.641Z,7.38
2022-10-29T00:30:55.439Z,7.39
2022-10-29T00:33:22.335Z,7.39
2022-10-29T00:36:00.453Z,7.38
2022-10-29T00:38:27.481Z,7.36
2022-10-29T00:40:55.014Z,7.38
2022-10-29T00:43:23.674Z,7.42
2022-10-29T00:46:00.076Z,7.39
2022-10-29T00:48:29.875Z,7.43
2022-10-29T00:50:57.522Z,7.44
2022-10-29T00:53:28.994Z,7.46
2022-10-29T00:55:55.725Z,7.49
2022-10-29T00:58:22.574Z,7.50
2022-10-29T01:00:49.122Z,7.47
2022-10-29T01:03:15.636Z,7.50
2022-10-29T01:05:44.114Z,7.51
2022-10-29T01:08:11.220Z,7.47
2022-10-29T01:10:52.862Z,7.49
2022-10-29T01:13:50.363Z,7.49
2022-10-29T01:16:35.530Z,7.51
2022-10-29T01:19:13.775Z,7.52
2022-10-29T01:21:46.078Z,7.52
2022-10-29T01:24:46.690Z,7.47
2022-10-29T01:27:43.554Z,7.49
2022-10-29T01:30:30.772Z,7.51
2022-10-29T01:33:33.753Z,7.51
2022-10-29T01:36:06.174Z,7.56
2022-10-29T01:38:42.187Z,7.46
2022-10-29T01:41:14.570Z,7.48
2022-10-29T01:43:50.048Z,7.50
2022-10-29T01:46:24.629Z,7.46
2022-10-29T01:48:57.954Z,7.45
2022-10-29T01:51:30.358Z,7.46
2022-10-29T01:53:59.114Z,7.46
2022-10-29T01:56:25.999Z,7.44
2022-10-29T01:58:57.253Z,7.47
2022-10-29T02:01:41.938Z,7.52
2022-10-29T02:04:08.358Z,7.55
2022-10-29T02:06:47.156Z,7.54
2022-10-29T02:09:36.840Z,7.59
2022-10-29T02:12:30.818Z,7.55
2022-10-29T02:15:04.848Z,7.51
2022-10-29T02:17:34.842Z,7.48
2022-10-29T02:20:09.991Z,7.49
2022-10-29T02:22:36.564Z,7.46
2022-10-29T02:25:04.109Z,7.45
2022-10-29T02:27:30.655Z,7.38
2022-10-29T02:29:57.182Z,7.35
2022-10-29T02:32:23.758Z,7.30
2022-10-29T02:34:50.321Z,7.23
2022-10-29T02:37:16.842Z,7.20
2022-10-29T02:39:43.437Z,7.21
2022-10-29T02:42:10.262Z,7.24
2022-10-29T02:44:36.765Z,7.27
2022-10-29T02:47:03.335Z,7.27
2022-10-29T02:49:29.871Z,7.28
2022-10-29T02:51:56.396Z,7.34
2022-10-29T02:54:22.871Z,7.37
2022-10-29T02:56:49.350Z,7.38
2022-10-29T02:59:15.846Z,7.41
2022-10-29T03:01:42.442Z,7.44
2022-10-29T03:04:10.908Z,7.45
2022-10-29T03:06:37.762Z,7.34
2022-10-29T03:09:04.682Z,7.37
2022-10-29T03:11:31.953Z,7.40
2022-10-29T03:13:58.586Z,7.37
2022-10-29T03:16:25.228Z,7.33
2022-10-29T03:18:51.728Z,7.18
2022-10-29T03:21:18.229Z,7.11
2022-10-29T03:23:44.781Z,7.03
2022-10-29T03:26:11.259Z,6.99
2022-10-29T03:28:37.825Z,6.95
2022-10-29T03:31:04.551Z,6.95
2022-10-29T03:33:31.253Z,6.96
2022-10-29T03:36:03.372Z,6.93
2022-10-29T03:38:30.258Z,6.91
2022-10-29T03:40:56.904Z,6.96
2022-10-29T03:43:23.954Z,6.98
2022-10-29T03:45:55.520Z,7.00
2022-10-29T03:48:23.069Z,7.04
2022-10-29T03:51:01.430Z,7.08
2022-10-29T03:53:29.413Z,7.11
2022-10-29T03:55:56.945Z,7.14
2022-10-29T03:58:24.453Z,7.05
2022-10-29T04:00:59.411Z,7.02
2022-10-29T04:03:27.790Z,6.96
2022-10-29T04:05:54.652Z,7.01
2022-10-29T04:08:21.229Z,7.01
2022-10-29T04:10:49.650Z,7.07
2022-10-29T04:13:16.376Z,7.13
2022-10-29T04:15:42.906Z,7.17
2022-10-29T04:18:10.628Z,7.18
2022-10-29T04:21:05.631Z,7.09
2022-10-29T04:28:58.804Z,7.13
2022-10-29T04:31:25.305Z,7.11
2022-10-29T04:33:54.862Z,7.09
2022-10-29T04:36:21.416Z,7.05
2022-10-29T04:38:47.918Z,7.04
2022-10-29T04:41:14.477Z,7.04
2022-10-29T04:43:40.975Z,7.03
2022-10-29T04:46:07.507Z,6.98
2022-10-29T04:48:34.098Z,6.97
2022-10-29T04:51:00.692Z,7.00
2022-10-29T04:53:27.312Z,7.04
2022-10-29T04:56:00.383Z,7.09
2022-10-29T04:58:27.656Z,7.03
2022-10-29T05:00:54.252Z,7.09
2022-10-29T05:03:20.765Z,7.07
2022-10-29T05:05:47.233Z,7.02
2022-10-29T05:08:15.333Z,7.01
2022-10-29T05:10:41.930Z,6.99
2022-10-29T05:13:11.965Z,7.01
2022-10-29T05:15:40.130Z,7.02
2022-10-29T05:18:07.285Z,6.97
2022-10-29T05:20:33.877Z,6.91
2022-10-29T05:23:01.931Z,6.91
2022-10-29T05:25:29.659Z,6.91
2022-10-29T05:28:03.238Z,6.94
2022-10-29T05:30:29.668Z,6.95
2022-10-29T05:32:56.582Z,6.95
2022-10-29T05:35:23.480Z,6.94
2022-10-29T05:37:54.473Z,6.88
2022-10-29T05:40:22.103Z,6.88
2022-10-29T05:42:48.724Z,6.84
2022-10-29T05:45:16.033Z,6.83
2022-10-29T05:47:42.637Z,6.81
2022-10-29T05:50:09.770Z,6.85
2022-10-29T05:52:36.419Z,6.86
2022-10-29T05:55:03.048Z,6.95
2022-10-29T05:57:29.586Z,6.99
2022-10-29T05:59:56.058Z,7.01
2022-10-29T06:02:22.745Z,7.02
2022-10-29T06:04:49.381Z,7.02
2022-10-29T06:07:15.976Z,6.99
2022-10-29T06:09:42.546Z,7.07
2022-10-29T06:12:09.041Z,7.04
2022-10-29T06:14:35.539Z,6.96
2022-10-29T06:17:02.269Z,6.96
2022-10-29T06:19:28.833Z,6.92
2022-10-29T06:21:57.918Z,6.98
2022-10-29T06:24:26.978Z,7.09
2022-10-29T06:26:54.356Z,7.10
2022-10-29T06:29:20.837Z,7.09
2022-10-29T06:31:47.371Z,7.17
2022-10-29T06:34:14.717Z,7.19
2022-10-29T06:36:41.397Z,7.24
2022-10-29T06:39:07.916Z,7.26
2022-10-29T06:41:34.427Z,7.26
2022-10-29T06:44:01.012Z,7.22
2022-10-29T06:46:27.530Z,7.18
2022-10-29T06:48:54.165Z,7.17
2022-10-29T06:51:20.680Z,7.28
2022-10-29T06:53:47.201Z,7.28
2022-10-29T06:56:13.722Z,7.32
2022-10-29T06:58:40.291Z,7.32
2022-10-29T07:01:06.810Z,7.37
2022-10-29T07:03:33.370Z,7.40
2022-10-29T07:06:00.198Z,7.45
2022-10-29T07:08:27.074Z,7.40
2022-10-29T07:10:54.492Z,7.39
2022-10-29T07:13:20.987Z,7.42
2022-10-29T07:15:47.513Z,7.47
2022-10-29T07:18:14.127Z,7.48
2022-10-29T07:20:43.086Z,7.50
2022-10-29T07:23:11.172Z,7.51
2022-10-29T07:25:38.966Z,7.54
2022-10-29T07:28:08.121Z,7.57
2022-10-29T07:30:35.009Z,7.61
2022-10-29T07:33:01.809Z,7.70
2022-10-29T07:35:28.396Z,7.69
2022-10-29T07:38:05.500Z,7.69
2022-10-29T07:40:37.810Z,7.63
2022-10-29T07:43:04.424Z,7.79
2022-10-29T07:45:31.010Z,7.77
2022-10-29T07:48:07.641Z,7.79
2022-10-29T07:50:34.401Z,7.80
2022-10-29T07:53:01.803Z,7.89
2022-10-29T07:58:02.309Z,7.78
2022-10-29T08:00:30.203Z,7.84
2022-10-29T08:02:57.365Z,7.94
2022-10-29T08:05:25.518Z,8.04
2022-10-29T08:07:56.101Z,8.04
2022-10-29T08:10:24.491Z,7.98
2022-10-29T08:12:51.707Z,7.97
2022-10-29T08:15:18.995Z,8.01
2022-10-29T08:17:46.607Z,8.14
2022-10-29T08:20:14.462Z,8.18
2022-10-29T08:22:41.053Z,8.07
2022-10-29T08:25:08.576Z,7.92
2022-10-29T08:27:35.230Z,7.82
2022-10-29T08:30:01.889Z,7.86
2022-10-29T08:32:28.362Z,7.91
2022-10-29T08:34:56.176Z,7.98
2022-10-29T08:37:22.730Z,8.05
2022-10-29T08:39:49.263Z,8.09
2022-10-29T08:42:42.419Z,8.08
2022-10-29T08:45:11.814Z,7.93
2022-10-29T08:47:47.236Z,7.82
2022-10-29T08:50:28.512Z,7.59
2022-10-29T08:53:19.507Z,7.59
2022-10-29T08:55:43.009Z,7.76
2022-10-29T08:58:37.512Z,7.82
2022-10-29T09:01:10.905Z,7.89
2022-10-29T09:03:37.656Z,7.92
2022-10-29T09:06:19.628Z,7.88
2022-10-29T09:09:23.488Z,7.91
2022-10-29T09:11:55.916Z,7.95
2022-10-29T09:14:28.375Z,7.89
2022-10-29T09:17:02.023Z,7.97
2022-10-29T09:19:46.400Z,7.98
2022-10-29T09:22:27.896Z,7.92
2022-10-29T09:25:18.767Z,8.00
2022-10-29T09:28:10.850Z,7.92
2022-10-29T09:30:50.230Z,7.86
2022-10-29T09:33:20.142Z,7.75
2022-10-29T09:35:52.720Z,7.65
2022-10-29T09:38:38.120Z,7.51
2022-10-29T09:41:05.878Z,7.50
2022-10-29T09:43:48.285Z,7.41
2022-10-29T09:46:35.248Z,7.40
2022-10-29T09:49:04.739Z,7.48
2022-10-29T09:51:52.642Z,7.60
2022-10-29T09:54:19.469Z,7.67
2022-10-29T09:56:53.348Z,7.71
2022-10-29T09:59:45.456Z,7.81
2022-10-29T10:02:44.954Z,7.91
2022-10-29T10:05:14.290Z,8.08
2022-10-29T10:07:41.700Z,8.01
2022-10-29T10:10:21.811Z,7.92
2022-10-29T10:12:50.432Z,7.97
2022-10-29T10:15:16.862Z,7.99
2022-10-29T10:18:00.684Z,7.82
2022-10-29T10:20:35.212Z,7.80
2022-10-29T10:23:16.009Z,7.78
2022-10-29T10:25:42.633Z,7.75
2022-10-29T10:28:22.980Z,7.65
2022-10-29T10:31:04.730Z,7.59
2022-10-29T10:33:33.538Z,7.56
2022-10-29T10:36:09.179Z,7.56
2022-10-29T10:38:47.815Z,7.46
2022-10-29T10:41:16.822Z,7.51
2022-10-29T10:43:46.017Z,7.45
2022-10-29T10:46:22.516Z,7.46
2022-10-29T10:49:13.699Z,7.57
2022-10-29T10:51:49.501Z,7.68
2022-10-29T10:54:28.232Z,7.71
2022-10-29T10:56:58.568Z,7.79
2022-10-29T10:59:31.096Z,7.71
2022-10-29T11:02:00.726Z,7.66
2022-10-29T11:04:33.465Z,7.49
2022-10-29T11:07:05.279Z,7.31
2022-10-29T11:09:40.865Z,7.27
2022-10-29T11:12:16.042Z,7.32
2022-10-29T11:14:59.785Z,7.32
2022-10-29T11:17:35.030Z,7.38
2022-10-29T11:20:24.299Z,7.37
2022-10-29T11:23:41.685Z,7.32
2022-10-29T11:26:20.064Z,7.41
2022-10-29T11:29:16.006Z,7.51
2022-10-29T11:32:22.316Z,7.58
2022-10-29T11:35:14.881Z,7.63
2022-10-29T11:37:52.621Z,7.70
2022-10-29T11:40:43.822Z,7.58
2022-10-29T11:43:15.338Z,7.40
2022-10-29T11:45:48.023Z,7.42
2022-10-29T11:48:42.327Z,7.38
2022-10-29T11:51:31.836Z,7.35
2022-10-29T11:54:11.897Z,7.34
2022-10-29T11:56:54.158Z,7.41
2022-10-29T11:59:50.669Z,7.45
2022-10-29T12:02:23.223Z,7.58
2022-10-29T12:05:15.922Z,7.68
2022-10-29T12:08:08.651Z,7.78
2022-10-29T12:10:38.104Z,7.84
2022-10-29T12:13:46.627Z,7.81
2022-10-29T12:16:30.898Z,7.99
2022-10-29T12:19:13.460Z,8.00
2022-10-29T12:22:18.141Z,7.80
2022-10-29T12:24:50.741Z,7.77
2022-10-29T12:27:47.620Z,7.77
2022-10-29T12:30:17.140Z,7.68
2022-10-29T12:32:46.500Z,7.75
2022-10-29T12:35:28.830Z,7.75
2022-10-29T12:38:15.049Z,7.81
2022-10-29T12:40:48.550Z,7.68
2022-10-29T12:43:27.355Z,7.66
2022-10-29T12:49:24.191Z,7.45
2022-10-29T12:54:27.019Z,7.45
2022-10-29T12:56:53.782Z,7.51
2022-10-29T12:59:30.998Z,7.66
2022-10-29T13:02:32.565Z,7.62
2022-10-29T13:05:09.678Z,7.72
2022-10-29T13:07:45.438Z,7.71
2022-10-29T13:10:24.521Z,7.60
2022-10-29T13:13:02.950Z,7.58
2022-10-29T13:15:36.962Z,7.47
2022-10-29T13:18:18.058Z,7.38
2022-10-29T13:20:51.197Z,7.27
2022-10-29T13:23:23.570Z,7.44
2022-10-29T13:26:00.377Z,7.52
2022-10-29T13:28:26.803Z,7.48
2022-10-29T13:31:13.373Z,7.50
2022-10-29T13:33:39.801Z,7.44
2022-10-29T13:36:15.300Z,7.40
2022-10-29T13:39:07.326Z,7.25
2022-10-29T13:41:44.122Z,7.23
2022-10-29T13:44:12.179Z,7.25
2022-10-29T13:47:01.138Z,7.21
2022-10-29T13:49:40.848Z,7.23
2022-10-29T13:52:14.257Z,7.21
2022-10-29T13:54:49.676Z,7.26
2022-10-29T13:57:33.718Z,7.36
2022-10-29T14:00:08.356Z,7.35
2022-10-29T14:02:44.088Z,7.19
2022-10-29T14:05:25.580Z,7.18
2022-10-29T14:08:07.362Z,7.19
2022-10-29T14:10:39.889Z,7.18
2022-10-29T14:13:32.550Z,7.14
2022-10-29T14:16:02.533Z,7.10
2022-10-29T14:18:37.366Z,7.12
2022-10-29T14:21:07.288Z,7.11
2022-10-29T14:23:33.870Z,7.03
2022-10-29T14:26:03.973Z,6.90
2022-10-29T14:28:34.139Z,6.89
2022-10-29T14:31:11.748Z,6.91
2022-10-29T14:33:43.125Z,6.81
2022-10-29T14:36:28.043Z,6.78
2022-10-29T14:39:03.215Z,6.72
2022-10-29T14:41:31.589Z,6.71
2022-10-29T14:44:06.068Z,6.79
2022-10-29T14:46:35.145Z,6.88
2022-10-29T14:49:15.200Z,6.96
2022-10-29T14:51:50.519Z,6.94
2022-10-29T14:54:23.301Z,7.03
2022-10-29T14:56:55.675Z,7.00
2022-10-29T14:59:28.098Z,7.02
2022-10-29T15:02:05.783Z,7.01
2022-10-29T15:04:49.778Z,7.02
2022-10-29T15:07:19.152Z,7.01
2022-10-29T15:09:46.206Z,6.92
2022-10-29T15:12:21.505Z,6.84
2022-10-29T15:14:52.804Z,6.83
2022-10-29T15:17:27.815Z,6.87
2022-10-29T15:19:58.535Z,6.83
2022-10-29T15:22:30.681Z,6.80
2022-10-29T15:24:58.109Z,6.78
2022-10-29T15:27:26.090Z,6.72
2022-10-29T15:29:53.813Z,6.66
2022-10-29T15:32:20.953Z,6.60
2022-10-29T15:34:51.205Z,6.56
2022-10-29T15:37:23.508Z,6.62
2022-10-29T15:39:56.636Z,6.67
2022-10-29T15:42:27.101Z,6.75
2022-10-29T15:45:15.996Z,6.71
2022-10-29T15:47:44.930Z,6.61
2022-10-29T15:50:14.417Z,6.56
2022-10-29T15:52:45.250Z,6.56
2022-10-29T15:55:26.003Z,6.51
2022-10-29T15:57:55.751Z,6.46
2022-10-29T16:00:23.936Z,6.46
2022-10-29T16:02:51.380Z,6.49
2022-10-29T16:05:18.750Z,6.49
2022-10-29T16:07:47.014Z,6.49
2022-10-29T16:10:20.710Z,6.45
2022-10-29T16:12:49.782Z,6.43
2022-10-29T16:15:19.540Z,6.44
2022-10-29T16:17:47.309Z,6.49
2022-10-29T16:20:16.273Z,6.56
2022-10-29T16:22:43.289Z,6.59
2022-10-29T16:25:25.790Z,6.65
2022-10-29T16:27:52.721Z,6.63
2022-10-29T16:30:20.643Z,6.63
2022-10-29T16:32:49.976Z,6.62
2022-10-29T16:35:22.861Z,6.60
2022-10-29T16:37:50.755Z,6.62
2022-10-29T16:40:18.221Z,6.63
2022-10-29T16:42:45.341Z,6.58
2022-10-29T16:45:27.150Z,6.63
2022-10-29T16:47:54.016Z,6.63
2022-10-29T16:50:29.590Z,6.63
2022-10-29T16:53:01.302Z,6.61
2022-10-29T16:55:29.305Z,6.62
2022-10-29T16:57:56.544Z,6.67
2022-10-29T17:00:25.950Z,6.64
2022-10-29T17:02:53.006Z,6.57
2022-10-29T17:05:19.607Z,6.56
2022-10-29T17:07:46.196Z,6.56
2022-10-29T17:10:12.740Z,6.54
2022-10-29T17:12:39.247Z,6.52
2022-10-29T17:15:06.361Z,6.51
2022-10-29T17:17:32.880Z,6.43
2022-10-29T17:19:59.421Z,6.38
2022-10-29T17:22:25.955Z,6.36
2022-10-29T17:24:52.427Z,6.37
2022-10-29T17:27:18.935Z,6.35
2022-10-29T17:29:45.449Z,6.34
2022-10-29T17:32:12.033Z,6.36
2022-10-29T17:34:38.566Z,6.34
2022-10-29T17:37:05.217Z,6.36
2022-10-29T17:39:31.781Z,6.35
2022-10-29T17:41:58.617Z,6.37
2022-10-29T17:44:27.713Z,6.36
2022-10-29T17:46:55.175Z,6.35
2022-10-29T17:49:21.754Z,6.37
2022-10-29T17:51:48.354Z,6.33
2022-10-29T17:54:18.478Z,6.30
2022-10-29T17:56:44.977Z,6.29
2022-10-29T17:59:11.550Z,6.28
2022-10-29T18:01:38.176Z,6.28
2022-10-29T18:04:05.951Z,6.37
2022-10-29T18:06:33.076Z,6.46
2022-10-29T18:09:00.334Z,6.45
2022-10-29T18:11:27.837Z,6.41
2022-10-29T18:13:56.593Z,6.39
2022-10-29T18:16:25.953Z,6.35
2022-10-29T18:19:01.441Z,6.33
2022-10-29T18:21:29.421Z,6.30
2022-10-29T18:23:55.995Z,6.32
2022-10-29T18:26:34.745Z,6.33
2022-10-29T18:29:12.241Z,6.31
2022-10-29T18:31:42.231Z,6.31
2022-10-29T18:34:09.734Z,6.31
2022-10-29T18:36:36.572Z,6.31
2022-10-29T18:39:06.164Z,6.32
2022-10-29T18:41:33.544Z,6.33
2022-10-29T18:44:00.328Z,6.31
2022-10-29T18:46:27.054Z,6.26
2022-10-29T18:48:53.662Z,6.24
2022-10-29T18:51:25.709Z,6.22
2022-10-29T18:53:54.279Z,6.27
2022-10-29T18:56:22.630Z,6.27
2022-10-29T18:58:49.402Z,6.24
2022-10-29T19:01:18.552Z,6.24
2022-10-29T19:03:50.729Z,6.23
2022-10-29T19:06:18.358Z,6.20
2022-10-29T19:08:45.127Z,6.16
2022-10-29T19:11:14.512Z,6.17
2022-10-29T19:13:41.580Z,6.17
2022-10-29T19:16:11.918Z,6.18
2022-10-29T19:18:40.082Z,6.20
2022-10-29T19:21:12.111Z,6.19
2022-10-29T19:23:39.274Z,6.16
2022-10-29T19:26:14.737Z,6.18
2022-10-29T19:28:42.564Z,6.22
2022-10-29T19:31:23.623Z,6.24
2022-10-29T19:33:51.399Z,6.21
2022-10-29T19:36:19.299Z,6.16
2022-10-29T19:38:46.642Z,6.12
2022-10-29T19:41:13.603Z,6.15
2022-10-29T19:43:40.869Z,6.22
2022-10-29T19:46:13.868Z,6.23
2022-10-29T19:48:41.052Z,6.29
2022-10-29T19:51:09.201Z,6.30
2022-10-29T19:53:38.405Z,6.27
2022-10-29T19:56:06.406Z,6.27
2022-10-29T19:58:33.437Z,6.32
2022-10-29T20:01:08.576Z,6.31
2022-10-29T20:03:35.975Z,6.26
2022-10-29T20:06:02.601Z,6.24
2022-10-29T20:08:29.682Z,6.27
2022-10-29T20:11:00.267Z,6.24
2022-10-29T20:13:27.637Z,6.24
2022-10-29T20:15:55.055Z,6.27
2022-10-29T20:18:21.956Z,6.29
2022-10-29T20:20:56.101Z,6.30
2022-10-29T20:23:23.724Z,6.32
2022-10-29T20:25:50.310Z,6.32
2022-10-29T20:28:16.904Z,6.33
2022-10-29T20:30:43.512Z,6.31
2022-10-29T20:33:10.216Z,6.32
2022-10-29T20:35:36.805Z,6.32
2022-10-29T20:38:03.494Z,6.31
2022-10-29T20:40:30.084Z,6.40
2022-10-29T20:42:56.689Z,6.38
2022-10-29T20:45:23.307Z,6.29
2022-10-29T20:47:49.893Z,6.29
2022-10-29T20:50:16.575Z,6.25
2022-10-29T20:52:48.094Z,6.31
2022-10-29T20:55:15.377Z,6.31
2022-10-29T20:57:41.926Z,6.33
2022-10-29T21:00:09.366Z,6.30
2022-10-29T21:02:35.975Z,6.36
2022-10-29T21:05:02.637Z,6.32
2022-10-29T21:07:29.147Z,6.19
2022-10-29T21:09:55.728Z,6.16
2022-10-29T21:12:22.259Z,6.10
2022-10-29T21:14:48.775Z,6.09
2022-10-29T21:17:15.319Z,6.05
2022-10-29T21:19:41.836Z,6.07
2022-10-29T21:22:08.403Z,6.07
2022-10-29T21:24:35.628Z,6.06
2022-10-29T21:27:02.379Z,6.05
2022-10-29T21:29:28.941Z,6.06
2022-10-29T21:31:55.456Z,5.99
2022-10-29T21:34:22.580Z,5.99
2022-10-29T21:36:49.607Z,6.04
2022-10-29T21:39:16.171Z,6.06
2022-10-29T21:41:42.834Z,6.00
2022-10-29T21:44:09.385Z,6.03
2022-10-29T21:46:35.949Z,6.01
2022-10-29T21:49:02.514Z,6.03
2022-10-29T21:51:29.046Z,6.10
2022-10-29T21:53:55.792Z,6.03
2022-10-29T21:56:22.375Z,6.05
2022-10-29T21:58:52.315Z,6.19
2022-10-29T22:01:18.982Z,6.21
2022-10-29T22:03:46.902Z,6.25
2022-10-29T22:06:19.044Z,6.35
2022-10-29T22:08:46.490Z,6.31
2022-10-29T22:11:14.373Z,6.32
2022-10-29T22:13:41.191Z,6.30
2022-10-29T22:16:09.081Z,6.28
2022-10-29T22:18:36.140Z,6.23
2022-10-29T22:21:05.593Z,6.19
2022-10-29T22:23:32.268Z,6.20
2022-10-29T22:25:58.790Z,6.12
2022-10-29T22:28:25.270Z,6.13
2022-10-29T22:31:02.885Z,6.22
2022-10-29T22:33:29.768Z,6.23
2022-10-29T22:35:56.401Z,6.26
2022-10-29T22:38:22.933Z,6.29
2022-10-29T22:40:49.472Z,6.24
2022-10-29T22:43:16.062Z,6.21
2022-10-29T22:45:44.591Z,6.23
2022-10-29T22:48:11.026Z,6.22
2022-10-29T22:50:37.605Z,6.16
2022-10-29T22:53:04.169Z,6.14
2022-10-29T22:55:30.686Z,6.16
2022-10-29T22:57:57.181Z,6.20
2022-10-29T23:00:23.720Z,6.25
2022-10-29T23:02:50.243Z,6.26
2022-10-29T23:05:16.798Z,6.22
2022-10-29T23:07:43.351Z,6.21
2022-10-29T23:10:10.048Z,6.18
2022-10-29T23:12:38.214Z,6.18
2022-10-29T23:15:05.408Z,6.21
2022-10-29T23:17:31.946Z,6.24
2022-10-29T23:19:58.779Z,6.22
2022-10-29T23:22:27.574Z,6.25
2022-10-29T23:24:54.344Z,6.29
2022-10-29T23:27:20.892Z,6.34
2022-10-29T23:29:47.425Z,6.28
2022-10-29T23:32:13.933Z,6.30
2022-10-29T23:34:40.413Z,6.33
2022-10-29T23:37:09.769Z,6.34
2022-10-29T23:39:36.917Z,6.35
2022-10-29T23:42:03.633Z,6.42
2022-10-29T23:44:30.195Z,6.28
2022-10-29T23:46:56.695Z,6.25
2022-10-29T23:49:23.261Z,6.25
2022-10-29T23:51:49.779Z,6.32
2022-10-29T23:54:16.259Z,6.36
2022-10-29T23:56:42.813Z,6.38
2022-10-29T23:59:09.283Z,6.41
